createdAt,value
2022-12-12T00:00:14.143Z,58.74
2022-12-12T00:02:42.224Z,58.68
2022-12-12T00:05:10.075Z,58.93
2022-12-12T00:07:36.867Z,58.63
2022-12-12T00:10:03.713Z,58.80
2022-12-12T00:12:30.122Z,58.39
2022-12-12T00:14:56.530Z,58.32
2022-12-12T00:17:22.952Z,58.77
2022-12-12T00:19:49.393Z,59.11
2022-12-12T00:22:15.847Z,58.54
2022-12-12T00:24:42.275Z,58.96
2022-12-12T00:27:09.170Z,58.13
2022-12-12T00:29:35.874Z,59.29
2022-12-12T00:32:02.346Z,58.58
2022-12-12T00:34:28.901Z,58.85
2022-12-12T00:36:55.385Z,58.69
2022-12-12T00:39:23.738Z,57.86
2022-12-12T00:41:50.329Z,58.18
2022-12-12T00:44:16.929Z,58.22
2022-12-12T00:46:43.554Z,57.84
2022-12-12T00:49:10.061Z,58.18
2022-12-12T00:51:36.524Z,58.33
2022-12-12T00:54:03.039Z,58.32
2022-12-12T00:56:29.726Z,57.93
2022-12-12T00:58:56.625Z,58.69
2022-12-12T01:01:25.145Z,58.65
2022-12-12T01:03:51.791Z,58.60
2022-12-12T01:06:18.347Z,58.37
2022-12-12T01:08:44.890Z,58.22
2022-12-12T01:11:12.883Z,58.36
2022-12-12T01:13:39.893Z,59.31
2022-12-12T01:16:07.021Z,59.31
2022-12-12T01:18:33.586Z,58.97
2022-12-12T01:21:00.035Z,59.50
2022-12-12T01:23:28.805Z,60.04
2022-12-12T01:26:02.294Z,60.71
2022-12-12T01:28:28.723Z,60.73
2022-12-12T01:30:55.633Z,60.70
2022-12-12T01:33:22.142Z,60.53
2022-12-12T01:35:48.988Z,60.46
2022-12-12T01:38:15.430Z,60.82
2022-12-12T01:40:42.029Z,61.63
2022-12-12T01:43:12.678Z,61.81
2022-12-12T01:45:55.328Z,61.86
2022-12-12T01:48:23.535Z,61.18
2022-12-12T01:50:50.834Z,61.66
2022-12-12T01:53:18.429Z,60.65
2022-12-12T01:55:46.541Z,60.61
2022-12-12T01:58:13.731Z,61.76
2022-12-12T02:00:40.616Z,63.10
2022-12-12T02:03:07.335Z,62.60
2022-12-12T02:05:36.547Z,62.08
2022-12-12T02:08:04.418Z,63.29
2022-12-12T02:10:31.068Z,62.85
2022-12-12T02:13:09.212Z,62.63
2022-12-12T02:15:41.523Z,62.81
2022-12-12T02:18:26.783Z,63.28
2022-12-12T02:20:56.923Z,63.96
2022-12-12T02:23:29.179Z,64.39
2022-12-12T02:25:55.587Z,64.12
2022-12-12T02:28:21.979Z,64.14
2022-12-12T02:31:07.589Z,64.10
2022-12-12T02:33:53.615Z,65.16
2022-12-12T02:36:32.266Z,64.85
2022-12-12T02:39:17.202Z,65.18
2022-12-12T02:41:47.930Z,65.17
2022-12-12T02:44:26.560Z,64.56
2022-12-12T02:46:58.133Z,64.26
2022-12-12T02:49:24.602Z,64.28
2022-12-12T02:51:52.448Z,64.40
2022-12-12T02:54:21.707Z,65.05
2022-12-12T02:56:51.657Z,64.75
2022-12-12T02:59:26.747Z,64.67
2022-12-12T03:02:12.228Z,64.74
2022-12-12T03:05:00.582Z,65.70
2022-12-12T03:07:45.815Z,64.50
2022-12-12T03:10:27.594Z,64.95
2022-12-12T03:13:06.263Z,65.17
2022-12-12T03:16:06.606Z,66.16
2022-12-12T03:18:51.651Z,65.89
2022-12-12T03:21:24.275Z,65.81
2022-12-12T03:23:56.619Z,65.74
2022-12-12T03:26:26.212Z,65.88
2022-12-12T03:28:55.996Z,66.31
2022-12-12T03:31:25.583Z,66.21
2022-12-12T03:33:58.254Z,65.93
2022-12-12T03:36:32.526Z,66.40
2022-12-12T03:39:02.162Z,65.37
2022-12-12T03:41:31.874Z,65.31
2022-12-12T03:44:03.812Z,65.97
2022-12-12T03:46:33.235Z,65.54
2022-12-12T03:49:06.273Z,65.80
2022-12-12T03:51:36.616Z,66.12
2022-12-12T03:54:12.371Z,65.71
2022-12-12T03:56:48.473Z,65.81
2022-12-12T03:59:21.608Z,65.10
2022-12-12T04:01:58.201Z,66.20
2022-12-12T04:04:29.609Z,65.44
2022-12-12T04:07:00.225Z,64.70
2022-12-12T04:09:45.613Z,63.81
2022-12-12T04:12:42.589Z,64.45
2022-12-12T04:15:25.638Z,65.11
2022-12-12T04:17:58.763Z,65.19
2022-12-12T04:20:53.246Z,65.52
2022-12-12T04:23:43.070Z,66.02
2022-12-12T04:26:32.056Z,65.90
2022-12-12T04:29:10.488Z,65.49
2022-12-12T04:31:39.922Z,66.77
2022-12-12T04:34:10.375Z,66.67
2022-12-12T04:36:37.452Z,65.78
2022-12-12T04:39:05.649Z,65.04
2022-12-12T04:41:34.448Z,64.69
2022-12-12T04:44:02.073Z,64.89
2022-12-12T04:46:31.088Z,63.15
2022-12-12T04:48:59.639Z,61.88
2022-12-12T04:51:31.966Z,61.54
2022-12-12T04:54:11.958Z,61.70
2022-12-12T04:56:39.586Z,60.88
2022-12-12T04:59:06.774Z,61.41
2022-12-12T05:01:38.344Z,62.45
2022-12-12T05:04:08.297Z,63.37
2022-12-12T05:06:39.792Z,62.70
2022-12-12T05:09:06.658Z,62.92
2022-12-12T05:11:33.638Z,62.73
2022-12-12T05:14:00.179Z,63.60
2022-12-12T05:16:29.077Z,63.00
2022-12-12T05:18:56.044Z,63.04
2022-12-12T05:21:22.512Z,63.13
2022-12-12T05:23:48.975Z,63.08
2022-12-12T05:26:19.231Z,63.45
2022-12-12T05:28:45.891Z,63.02
2022-12-12T05:31:12.383Z,62.60
2022-12-12T05:33:38.884Z,61.78
2022-12-12T05:36:05.761Z,61.27
2022-12-12T05:38:32.208Z,61.66
2022-12-12T05:40:58.673Z,61.24
2022-12-12T05:43:25.330Z,61.19
2022-12-12T05:45:52.029Z,60.81
2022-12-12T05:48:24.165Z,60.54
2022-12-12T05:50:51.660Z,60.83
2022-12-12T05:53:18.100Z,60.52
2022-12-12T05:55:44.753Z,60.60
2022-12-12T05:58:11.233Z,60.58
2022-12-12T06:00:37.836Z,60.26
2022-12-12T06:03:04.307Z,60.04
2022-12-12T06:05:31.244Z,60.70
2022-12-12T06:07:57.985Z,61.37
2022-12-12T06:10:27.566Z,61.72
2022-12-12T06:12:54.046Z,60.55
2022-12-12T06:15:20.591Z,60.52
2022-12-12T06:17:47.109Z,60.55
2022-12-12T06:20:13.707Z,59.99
2022-12-12T06:22:42.267Z,59.83
2022-12-12T06:25:09.025Z,59.97
2022-12-12T06:27:35.557Z,60.93
2022-12-12T06:30:02.296Z,60.58
2022-12-12T06:32:28.796Z,60.23
2022-12-12T06:34:55.246Z,59.88
2022-12-12T06:37:21.827Z,60.26
2022-12-12T06:39:51.253Z,60.23
2022-12-12T06:42:17.915Z,60.36
2022-12-12T06:44:47.890Z,60.17
2022-12-12T06:47:14.711Z,60.11
2022-12-12T06:49:41.320Z,59.82
2022-12-12T06:52:08.163Z,60.32
2022-12-12T06:54:37.671Z,60.36
2022-12-12T06:57:04.691Z,60.75
2022-12-12T06:59:31.845Z,61.01
2022-12-12T07:01:58.926Z,61.07
2022-12-12T07:04:26.273Z,60.90
2022-12-12T07:06:52.902Z,61.35
2022-12-12T07:09:20.462Z,61.26
2022-12-12T07:11:47.147Z,61.03
2022-12-12T07:14:13.737Z,60.51
2022-12-12T07:16:42.790Z,60.43
2022-12-12T07:19:10.017Z,59.88
2022-12-12T07:21:36.946Z,60.37
2022-12-12T07:24:03.921Z,60.58
2022-12-12T07:26:33.558Z,60.78
2022-12-12T07:29:00.527Z,61.62
2022-12-12T07:31:28.907Z,61.82
2022-12-12T07:33:55.633Z,62.14
2022-12-12T07:36:22.633Z,62.03
2022-12-12T07:38:49.871Z,61.80
2022-12-12T07:41:20.945Z,61.90
2022-12-12T07:43:49.422Z,62.02
2022-12-12T07:46:17.759Z,62.47
2022-12-12T07:48:44.782Z,62.21
2022-12-12T07:51:11.672Z,62.05
2022-12-12T07:53:38.153Z,62.15
2022-12-12T07:56:06.283Z,62.44
2022-12-12T07:58:33.238Z,61.84
2022-12-12T08:00:59.750Z,61.70
2022-12-12T08:03:26.304Z,62.84
2022-12-12T08:05:52.898Z,63.40
2022-12-12T08:08:19.566Z,63.16
2022-12-12T08:10:46.283Z,62.55
2022-12-12T08:13:12.806Z,61.78
2022-12-12T08:15:39.351Z,62.06
2022-12-12T08:18:05.891Z,62.69
2022-12-12T08:20:32.398Z,61.39
2022-12-12T08:22:59.354Z,62.29
2022-12-12T08:25:26.161Z,62.41
2022-12-12T08:27:52.936Z,63.54
2022-12-12T08:30:19.519Z,62.86
2022-12-12T08:32:45.997Z,62.68
2022-12-12T08:35:14.000Z,64.36
2022-12-12T08:37:40.761Z,64.50
2022-12-12T08:40:07.835Z,64.21
2022-12-12T08:42:34.328Z,65.12
2022-12-12T08:45:00.750Z,63.71
2022-12-12T08:47:27.286Z,66.10
2022-12-12T08:49:54.022Z,67.00
2022-12-12T08:52:20.635Z,65.85
2022-12-12T08:54:47.124Z,64.96
2022-12-12T08:57:13.599Z,65.73
2022-12-12T08:59:40.010Z,64.31
2022-12-12T09:02:06.777Z,63.63
2022-12-12T09:04:34.191Z,63.46
2022-12-12T09:07:06.607Z,63.57
2022-12-12T09:09:34.815Z,63.70
2022-12-12T09:12:01.246Z,63.46
2022-12-12T09:14:27.907Z,63.26
2022-12-12T09:16:54.528Z,63.96
2022-12-12T09:19:21.170Z,62.71
2022-12-12T09:21:47.679Z,62.41
2022-12-12T09:24:14.186Z,63.78
2022-12-12T09:26:40.580Z,63.22
2022-12-12T09:29:07.079Z,64.11
2022-12-12T09:31:33.514Z,64.69
2022-12-12T09:34:00.045Z,64.46
2022-12-12T09:36:26.538Z,63.60
2022-12-12T09:38:52.987Z,64.64
2022-12-12T09:41:20.881Z,64.46
2022-12-12T09:43:53.412Z,65.07
2022-12-12T09:46:24.769Z,63.95
2022-12-12T09:48:51.275Z,64.56
2022-12-12T09:51:17.953Z,63.93
2022-12-12T09:53:46.227Z,63.79
2022-12-12T09:56:21.512Z,64.51
2022-12-12T09:58:57.457Z,64.78
2022-12-12T10:01:33.094Z,65.29
2022-12-12T10:04:18.521Z,64.52
2022-12-12T10:06:55.367Z,64.53
2022-12-12T10:09:29.285Z,65.56
2022-12-12T10:11:56.584Z,65.29
2022-12-12T10:14:26.101Z,65.45
2022-12-12T10:16:57.851Z,64.34
2022-12-12T10:19:29.832Z,64.94
2022-12-12T10:22:00.765Z,64.97
2022-12-12T10:24:33.413Z,65.38
2022-12-12T10:27:01.415Z,66.02
2022-12-12T10:29:28.458Z,66.43
2022-12-12T10:31:54.840Z,66.75
2022-12-12T10:34:21.231Z,67.72
2022-12-12T10:36:50.714Z,66.47
2022-12-12T10:39:25.995Z,66.76
2022-12-12T10:42:01.855Z,65.72
2022-12-12T10:44:37.367Z,65.68
2022-12-12T10:47:07.943Z,65.31
2022-12-12T10:49:34.955Z,64.41
2022-12-12T10:52:05.848Z,65.03
2022-12-12T10:54:36.104Z,63.82
2022-12-12T10:57:15.273Z,64.73
2022-12-12T10:59:48.092Z,64.42
2022-12-12T11:02:22.372Z,64.63
2022-12-12T11:04:49.319Z,65.01
2022-12-12T11:07:20.133Z,63.82
2022-12-12T11:09:46.928Z,64.92
2022-12-12T11:12:14.570Z,64.22
2022-12-12T11:14:52.101Z,63.99
2022-12-12T11:17:26.135Z,63.04
2022-12-12T11:19:53.936Z,64.31
2022-12-12T11:22:21.130Z,63.99
2022-12-12T11:24:49.108Z,64.28
2022-12-12T11:27:35.774Z,64.73
2022-12-12T11:30:05.161Z,64.16
2022-12-12T11:32:37.729Z,63.94
2022-12-12T11:35:06.344Z,63.77
2022-12-12T11:37:37.941Z,63.68
2022-12-12T11:40:05.861Z,63.74
2022-12-12T11:42:34.028Z,63.82
2022-12-12T11:45:19.361Z,63.66
2022-12-12T11:47:46.793Z,63.61
2022-12-12T11:50:22.356Z,63.50
2022-12-12T11:52:49.702Z,64.48
2022-12-12T11:55:17.429Z,63.15
2022-12-12T11:58:06.884Z,62.95
2022-12-12T12:00:45.211Z,63.24
2022-12-12T12:03:11.756Z,62.96
2022-12-12T12:05:38.208Z,63.31
2022-12-12T12:08:04.843Z,62.22
2022-12-12T12:10:47.072Z,63.31
2022-12-12T12:13:16.535Z,62.99
2022-12-12T12:15:54.188Z,62.20
2022-12-12T12:18:33.667Z,62.42
2022-12-12T12:21:00.260Z,61.44
2022-12-12T12:23:26.725Z,61.47
2022-12-12T12:25:56.255Z,61.27
2022-12-12T12:28:44.488Z,61.55
2022-12-12T12:31:16.930Z,61.50
2022-12-12T12:33:43.387Z,61.40
2022-12-12T12:36:22.510Z,61.14
2022-12-12T12:39:01.148Z,61.21
2022-12-12T12:41:40.847Z,61.03
2022-12-12T12:44:07.304Z,60.70
2022-12-12T12:46:39.002Z,60.32
2022-12-12T12:49:19.668Z,60.22
2022-12-12T12:51:50.810Z,60.00
2022-12-12T12:54:25.950Z,60.09
2022-12-12T12:57:00.843Z,60.22
2022-12-12T12:59:29.468Z,60.24
2022-12-12T13:01:57.663Z,59.61
2022-12-12T13:04:24.922Z,59.56
2022-12-12T13:06:54.315Z,59.49
2022-12-12T13:09:27.293Z,59.27
2022-12-12T13:11:57.053Z,59.29
2022-12-12T13:14:29.936Z,60.46
2022-12-12T13:16:58.406Z,59.73
2022-12-12T13:19:32.115Z,59.58
2022-12-12T13:22:07.827Z,59.71
2022-12-12T13:24:34.315Z,60.01
2022-12-12T13:27:14.191Z,59.39
2022-12-12T13:29:48.769Z,59.29
2022-12-12T13:32:15.437Z,58.77
2022-12-12T13:34:45.007Z,58.48
2022-12-12T13:37:14.439Z,58.28
2022-12-12T13:39:40.867Z,58.30
2022-12-12T13:42:08.353Z,58.18
2022-12-12T13:44:40.912Z,58.55
2022-12-12T13:47:22.640Z,58.36
2022-12-12T13:49:55.682Z,57.60
2022-12-12T13:52:29.457Z,58.99
2022-12-12T13:55:18.946Z,58.81
2022-12-12T13:57:58.935Z,59.07
2022-12-12T14:00:45.649Z,58.97
2022-12-12T14:03:12.339Z,59.23
2022-12-12T14:05:43.227Z,58.93
2022-12-12T14:08:15.865Z,59.81
2022-12-12T14:10:45.087Z,59.14
2022-12-12T14:13:23.866Z,60.21
2022-12-12T14:15:50.342Z,60.05
2022-12-12T14:18:19.628Z,59.61
2022-12-12T14:20:54.765Z,59.43
2022-12-12T14:23:24.445Z,59.48
2022-12-12T14:25:51.271Z,58.89
2022-12-12T14:28:26.943Z,57.90
2022-12-12T14:31:08.768Z,58.14
2022-12-12T14:33:43.487Z,58.29
2022-12-12T14:36:16.079Z,58.15
2022-12-12T14:38:47.621Z,57.79
2022-12-12T14:41:17.785Z,58.30
2022-12-12T14:44:38.147Z,58.68
2022-12-12T14:46:40.461Z,58.73
2022-12-12T14:49:13.063Z,59.39
2022-12-12T14:51:40.342Z,59.33
2022-12-12T14:54:13.647Z,60.06
2022-12-12T14:56:50.711Z,59.93
2022-12-12T14:59:21.820Z,59.92
2022-12-12T15:01:53.577Z,59.58
2022-12-12T15:04:23.197Z,59.94
2022-12-12T15:06:52.828Z,60.00
2022-12-12T15:09:19.342Z,59.48
2022-12-12T15:11:46.912Z,59.68
2022-12-12T15:14:20.063Z,60.07
2022-12-12T15:16:49.045Z,60.14
2022-12-12T15:19:17.678Z,60.40
2022-12-12T15:21:45.524Z,60.53
2022-12-12T15:24:23.070Z,59.82
2022-12-12T15:26:51.146Z,59.99
2022-12-12T15:29:19.342Z,60.14
2022-12-12T15:31:47.174Z,60.84
2022-12-12T15:35:01.179Z,60.10
2022-12-12T15:37:32.134Z,59.19
2022-12-12T15:40:11.180Z,59.47
2022-12-12T15:42:39.245Z,59.63
2022-12-12T15:45:06.957Z,59.65
2022-12-12T15:47:33.879Z,59.57
2022-12-12T15:50:12.926Z,59.26
2022-12-12T15:52:39.985Z,58.92
2022-12-12T15:55:06.592Z,58.93
2022-12-12T15:57:43.632Z,59.63
2022-12-12T16:00:23.753Z,60.55
2022-12-12T16:03:00.353Z,60.82
2022-12-12T16:05:33.367Z,60.25
2022-12-12T16:08:18.373Z,60.31
2022-12-12T16:10:52.811Z,58.90
2022-12-12T16:13:24.554Z,60.32
2022-12-12T16:15:51.111Z,59.20
2022-12-12T16:18:19.970Z,59.38
2022-12-12T16:20:51.688Z,59.72
2022-12-12T16:23:18.138Z,59.16
2022-12-12T16:25:44.641Z,60.24
2022-12-12T16:28:11.006Z,60.11
2022-12-12T16:30:39.374Z,60.96
2022-12-12T16:33:20.308Z,61.16
2022-12-12T16:35:46.723Z,60.04
2022-12-12T16:38:14.499Z,59.90
2022-12-12T16:40:41.399Z,60.72
2022-12-12T16:43:13.407Z,59.97
2022-12-12T16:45:40.174Z,59.33
2022-12-12T16:48:17.018Z,60.39
2022-12-12T16:50:43.498Z,60.05
2022-12-12T16:53:10.349Z,60.48
2022-12-12T16:55:37.569Z,59.77
2022-12-12T16:58:03.979Z,59.10
2022-12-12T17:00:30.411Z,59.95
2022-12-12T17:02:56.923Z,59.68
2022-12-12T17:05:24.712Z,59.04
2022-12-12T17:07:51.896Z,58.42
2022-12-12T17:10:19.094Z,60.37
2022-12-12T17:12:45.899Z,59.62
2022-12-12T17:15:14.139Z,59.41
2022-12-12T17:17:40.535Z,59.31
2022-12-12T17:20:07.194Z,59.12
2022-12-12T17:22:33.636Z,58.19
2022-12-12T17:25:00.258Z,59.20
2022-12-12T17:27:26.907Z,58.45
2022-12-12T17:29:53.280Z,58.55
2022-12-12T17:32:24.191Z,59.04
2022-12-12T17:34:51.183Z,59.35
2022-12-12T17:37:17.790Z,60.31
2022-12-12T17:39:44.246Z,59.92
2022-12-12T17:42:10.895Z,58.43
2022-12-12T17:44:37.318Z,58.27
2022-12-12T17:47:03.885Z,58.45
2022-12-12T17:49:31.396Z,57.96
2022-12-12T17:51:57.813Z,58.64
2022-12-12T17:54:24.220Z,59.04
2022-12-12T17:56:50.946Z,57.89
2022-12-12T17:59:17.371Z,59.23
2022-12-12T18:01:44.718Z,58.72
2022-12-12T18:04:11.123Z,57.79
2022-12-12T18:06:37.646Z,57.34
2022-12-12T18:09:04.919Z,57.58
2022-12-12T18:11:32.307Z,57.40
2022-12-12T18:14:00.390Z,58.66
2022-12-12T18:16:28.712Z,58.42
2022-12-12T18:18:55.638Z,58.16
2022-12-12T18:24:17.788Z,58.78
2022-12-12T18:26:44.504Z,58.06
2022-12-12T18:29:12.243Z,59.42
2022-12-12T18:31:38.758Z,59.11
2022-12-12T18:34:05.497Z,58.70
2022-12-12T18:36:32.867Z,58.75
2022-12-12T18:39:00.465Z,58.99
2022-12-12T18:41:28.121Z,58.62
2022-12-12T18:43:55.024Z,57.77
2022-12-12T18:46:22.314Z,58.16
2022-12-12T18:48:48.983Z,58.81
2022-12-12T18:51:16.871Z,58.50
2022-12-12T18:53:43.695Z,57.90
2022-12-12T18:56:15.782Z,58.98
2022-12-12T18:58:42.635Z,58.79
2022-12-12T19:01:11.148Z,58.37
2022-12-12T19:03:38.890Z,58.62
2022-12-12T19:06:09.919Z,58.35
2022-12-12T19:08:36.989Z,58.96
2022-12-12T19:11:03.600Z,58.15
2022-12-12T19:13:30.419Z,58.40
2022-12-12T19:15:57.957Z,58.27
2022-12-12T19:18:24.559Z,57.80
2022-12-12T19:20:53.606Z,57.95
2022-12-12T19:23:20.332Z,57.40
2022-12-12T19:25:46.742Z,58.55
2022-12-12T19:28:13.211Z,58.74
2022-12-12T19:30:40.569Z,57.89
2022-12-12T19:33:07.052Z,57.58
2022-12-12T19:35:38.383Z,56.93
2022-12-12T19:38:04.813Z,57.70
2022-12-12T19:40:31.216Z,58.68
2022-12-12T19:42:57.726Z,58.22
2022-12-12T19:45:24.192Z,57.90
2022-12-12T19:47:50.702Z,58.48
2022-12-12T19:50:17.455Z,57.23
2022-12-12T19:52:44.082Z,59.01
2022-12-12T19:55:10.471Z,57.59
2022-12-12T19:57:36.953Z,57.77
2022-12-12T20:00:04.117Z,58.44
2022-12-12T20:02:36.735Z,58.58
2022-12-12T20:05:03.681Z,58.03
2022-12-12T20:07:30.367Z,57.42
2022-12-12T20:09:56.819Z,58.01
2022-12-12T20:12:23.288Z,58.34
2022-12-12T20:14:49.817Z,57.71
2022-12-12T20:17:16.345Z,57.41
2022-12-12T20:19:43.193Z,57.16
2022-12-12T20:22:09.619Z,57.66
2022-12-12T20:24:37.352Z,58.04
2022-12-12T20:27:04.290Z,58.07
2022-12-12T20:29:31.038Z,56.70
2022-12-12T20:31:59.749Z,57.90
2022-12-12T20:34:26.869Z,56.89
2022-12-12T20:36:55.519Z,57.75
2022-12-12T20:39:23.212Z,58.83
2022-12-12T20:41:50.603Z,58.40
2022-12-12T20:44:17.356Z,57.99
2022-12-12T20:46:44.957Z,57.42
2022-12-12T20:49:16.699Z,57.89
2022-12-12T20:51:59.175Z,56.63
2022-12-12T20:54:27.329Z,57.56
2022-12-12T20:56:54.556Z,56.93
2022-12-12T20:59:21.232Z,57.74
2022-12-12T21:01:48.021Z,57.67
2022-12-12T21:04:15.142Z,57.30
2022-12-12T21:06:49.447Z,57.37
2022-12-12T21:09:22.837Z,57.14
2022-12-12T21:11:51.977Z,57.39
2022-12-12T21:14:18.401Z,57.34
2022-12-12T21:16:44.866Z,58.35
2022-12-12T21:19:12.490Z,57.72
2022-12-12T21:21:39.547Z,58.53
2022-12-12T21:24:06.210Z,56.36
2022-12-12T21:26:32.962Z,58.17
2022-12-12T21:29:01.673Z,57.56
2022-12-12T21:31:29.473Z,56.58
2022-12-12T21:33:56.472Z,58.18
2022-12-12T21:36:23.414Z,58.13
2022-12-12T21:38:50.228Z,57.48
2022-12-12T21:41:18.024Z,58.31
2022-12-12T21:43:44.932Z,57.78
2022-12-12T21:46:16.694Z,57.52
2022-12-12T21:48:43.224Z,56.88
2022-12-12T21:51:13.422Z,57.57
2022-12-12T21:53:39.970Z,57.31
2022-12-12T21:56:14.998Z,57.29
2022-12-12T21:58:42.360Z,57.40
2022-12-12T22:01:15.996Z,57.22
2022-12-12T22:03:42.895Z,57.46
2022-12-12T22:06:14.918Z,57.31
2022-12-12T22:08:41.703Z,57.47
2022-12-12T22:11:09.105Z,57.29
2022-12-12T22:13:39.830Z,56.75
2022-12-12T22:16:08.732Z,56.80
2022-12-12T22:18:35.197Z,57.26
2022-12-12T22:21:02.471Z,57.10
2022-12-12T22:23:28.865Z,56.80
2022-12-12T22:25:55.256Z,57.02
2022-12-12T22:28:21.667Z,57.59
2022-12-12T22:30:48.085Z,57.20
2022-12-12T22:33:14.513Z,56.62
2022-12-12T22:35:40.990Z,56.80
2022-12-12T22:38:07.456Z,57.28
2022-12-12T22:40:33.862Z,56.81
2022-12-12T22:43:00.473Z,56.99
2022-12-12T22:45:26.962Z,56.51
2022-12-12T22:47:53.390Z,56.30
2022-12-12T22:50:19.767Z,57.45
2022-12-12T22:52:46.243Z,56.58
2022-12-12T22:55:12.980Z,56.72
2022-12-12T22:57:39.655Z,56.30
2022-12-12T23:00:10.327Z,56.71
2022-12-12T23:02:36.728Z,56.58
2022-12-12T23:05:03.381Z,56.33
2022-12-12T23:07:29.875Z,56.74
2022-12-12T23:09:58.879Z,56.84
2022-12-12T23:12:25.308Z,57.52
2022-12-12T23:14:51.690Z,56.46
2022-12-12T23:17:18.098Z,56.89
2022-12-12T23:19:44.529Z,56.93
2022-12-12T23:22:10.919Z,56.75
2022-12-12T23:24:37.606Z,56.72
2022-12-12T23:27:04.131Z,56.08
2022-12-12T23:29:30.672Z,56.68
2022-12-12T23:31:58.724Z,56.90
2022-12-12T23:34:25.268Z,56.47
2022-12-12T23:36:52.799Z,56.05
2022-12-12T23:39:19.225Z,56.93
2022-12-12T23:41:45.786Z,56.28
2022-12-12T23:44:13.199Z,57.72
2022-12-12T23:46:39.684Z,57.13
2022-12-12T23:49:06.059Z,58.13
2022-12-12T23:51:34.027Z,57.41
2022-12-12T23:54:01.692Z,56.88
2022-12-12T23:56:28.594Z,56.62
2022-12-12T23:58:55.895Z,56.91
